sensor_id;sensor_type;location;lat;lon;timestamp;pressure;altitude;pressure_sealevel;temperature;humidity
17607;BME280;69222;52.242;20.980;2023-06-10T00:00:06;100287.84;;;20.81;54.09
17607;BME280;69222;52.242;20.980;2023-06-10T00:02:34;100284.59;;;20.75;53.67
17607;BME280;69222;52.242;20.980;2023-06-10T00:05:03;100287.34;;;20.72;53.59
17607;BME280;69222;52.242;20.980;2023-06-10T00:07:31;100282.34;;;20.68;52.31
17607;BME280;69222;52.242;20.980;2023-06-10T00:09:59;100282.66;;;20.62;51.38
17607;BME280;69222;52.242;20.980;2023-06-10T00:12:31;100282.19;;;20.54;50.60
17607;BME280;69222;52.242;20.980;2023-06-10T00:15:07;100276.31;;;20.48;50.36
17607;BME280;69222;52.242;20.980;2023-06-10T00:17:36;100278.28;;;20.43;49.57
17607;BME280;69222;52.242;20.980;2023-06-10T00:20:07;100281.06;;;20.40;49.38
17607;BME280;69222;52.242;20.980;2023-06-10T00:22:39;100278.66;;;20.36;49.07
17607;BME280;69222;52.242;20.980;2023-06-10T00:25:09;100276.22;;;20.33;48.81
17607;BME280;69222;52.242;20.980;2023-06-10T00:27:38;100276.22;;;20.33;48.03
17607;BME280;69222;52.242;20.980;2023-06-10T00:30:11;100276.34;;;20.30;48.21
17607;BME280;69222;52.242;20.980;2023-06-10T00:32:39;100273.66;;;20.31;47.86
17607;BME280;69222;52.242;20.980;2023-06-10T00:35:08;100278.13;;;20.29;47.41
17607;BME280;69222;52.242;20.980;2023-06-10T00:37:36;100278.97;;;20.30;47.48
17607;BME280;69222;52.242;20.980;2023-06-10T00:40:05;100277.34;;;20.27;46.13
17607;BME280;69222;52.242;20.980;2023-06-10T00:42:35;100280.31;;;20.19;44.54
17607;BME280;69222;52.242;20.980;2023-06-10T00:45:05;100271.06;;;20.12;44.75
17607;BME280;69222;52.242;20.980;2023-06-10T00:47:35;100271.06;;;20.12;44.40
17607;BME280;69222;52.242;20.980;2023-06-10T00:50:05;100273.91;;;20.08;43.95
17607;BME280;69222;52.242;20.980;2023-06-10T00:52:35;100274.97;;;20.03;44.07
17607;BME280;69222;52.242;20.980;2023-06-10T00:55:04;100271.78;;;19.97;43.68
17607;BME280;69222;52.242;20.980;2023-06-10T00:57:32;100274.53;;;19.94;43.65
17607;BME280;69222;52.242;20.980;2023-06-10T01:00:01;100284.31;;;19.90;42.85
17607;BME280;69222;52.242;20.980;2023-06-10T01:02:35;100286.34;;;19.84;42.33
17607;BME280;69222;52.242;20.980;2023-06-10T01:05:04;100285.72;;;19.78;42.18
17607;BME280;69222;52.242;20.980;2023-06-10T01:07:37;100286.91;;;19.71;41.97
17607;BME280;69222;52.242;20.980;2023-06-10T01:10:12;100295.88;;;19.66;41.87
17607;BME280;69222;52.242;20.980;2023-06-10T01:12:45;100284.97;;;19.56;41.73
17607;BME280;69222;52.242;20.980;2023-06-10T01:15:16;100290.31;;;19.53;41.44
17607;BME280;69222;52.242;20.980;2023-06-10T01:17:56;100288.81;;;19.47;41.73
17607;BME280;69222;52.242;20.980;2023-06-10T01:20:26;100287.34;;;19.42;41.87
17607;BME280;69222;52.242;20.980;2023-06-10T01:22:57;100293.41;;;19.42;42.14
17607;BME280;69222;52.242;20.980;2023-06-10T01:25:26;100298.72;;;19.41;42.01
17607;BME280;69222;52.242;20.980;2023-06-10T01:28:02;100290.88;;;19.41;42.03
17607;BME280;69222;52.242;20.980;2023-06-10T01:30:35;100294.38;;;19.40;41.74
17607;BME280;69222;52.242;20.980;2023-06-10T01:33:06;100298.91;;;19.36;41.98
17607;BME280;69222;52.242;20.980;2023-06-10T01:35:37;100303.50;;;19.31;42.23
17607;BME280;69222;52.242;20.980;2023-06-10T01:38:07;100295.91;;;19.25;42.22
17607;BME280;69222;52.242;20.980;2023-06-10T01:40:35;100300.28;;;19.24;42.20
17607;BME280;69222;52.242;20.980;2023-06-10T01:43:04;100303.81;;;19.23;42.14
17607;BME280;69222;52.242;20.980;2023-06-10T01:45:32;100310.16;;;19.18;42.24
17607;BME280;69222;52.242;20.980;2023-06-10T01:48:00;100308.59;;;19.14;42.66
17607;BME280;69222;52.242;20.980;2023-06-10T01:50:28;100311.28;;;19.12;42.52
17607;BME280;69222;52.242;20.980;2023-06-10T01:52:57;100317.53;;;19.08;42.53
17607;BME280;69222;52.242;20.980;2023-06-10T01:55:27;100317.00;;;19.00;42.96
17607;BME280;69222;52.242;20.980;2023-06-10T01:57:55;100317.28;;;18.94;42.92
17607;BME280;69222;52.242;20.980;2023-06-10T02:00:23;100321.78;;;18.90;43.15
17607;BME280;69222;52.242;20.980;2023-06-10T02:02:51;100318.56;;;18.83;43.19
17607;BME280;69222;52.242;20.980;2023-06-10T02:05:19;100331.00;;;18.77;43.35
17607;BME280;69222;52.242;20.980;2023-06-10T02:07:47;100322.53;;;18.70;43.64
17607;BME280;69222;52.242;20.980;2023-06-10T02:10:15;100321.81;;;18.67;43.89
17607;BME280;69222;52.242;20.980;2023-06-10T02:12:44;100318.56;;;18.62;44.14
17607;BME280;69222;52.242;20.980;2023-06-10T02:15:13;100324.81;;;18.57;44.40
17607;BME280;69222;52.242;20.980;2023-06-10T02:17:42;100331.09;;;18.52;44.49
17607;BME280;69222;52.242;20.980;2023-06-10T02:20:12;100326.06;;;18.47;44.66
17607;BME280;69222;52.242;20.980;2023-06-10T02:22:40;100330.66;;;18.42;44.86
17607;BME280;69222;52.242;20.980;2023-06-10T02:25:09;100331.69;;;18.38;44.85
17607;BME280;69222;52.242;20.980;2023-06-10T02:27:37;100336.16;;;18.34;45.67
17607;BME280;69222;52.242;20.980;2023-06-10T02:30:08;100327.72;;;18.28;45.60
17607;BME280;69222;52.242;20.980;2023-06-10T02:32:37;100337.44;;;18.24;45.90
17607;BME280;69222;52.242;20.980;2023-06-10T02:35:06;100335.72;;;18.23;45.92
17607;BME280;69222;52.242;20.980;2023-06-10T02:37:34;100341.84;;;18.22;46.24
17607;BME280;69222;52.242;20.980;2023-06-10T02:40:03;100349.81;;;18.19;46.22
17607;BME280;69222;52.242;20.980;2023-06-10T02:42:31;100355.13;;;18.16;46.52
17607;BME280;69222;52.242;20.980;2023-06-10T02:44:59;100350.88;;;18.14;46.77
17607;BME280;69222;52.242;20.980;2023-06-10T02:47:28;100356.16;;;18.12;46.82
17607;BME280;69222;52.242;20.980;2023-06-10T02:49:57;100345.84;;;18.09;46.90
17607;BME280;69222;52.242;20.980;2023-06-10T02:52:25;100352.94;;;18.05;47.35
17607;BME280;69222;52.242;20.980;2023-06-10T02:54:53;100354.69;;;18.05;47.42
17607;BME280;69222;52.242;20.980;2023-06-10T02:57:21;100362.50;;;18.05;47.49
17607;BME280;69222;52.242;20.980;2023-06-10T02:59:50;100352.84;;;18.07;47.48
17607;BME280;69222;52.242;20.980;2023-06-10T03:02:20;100357.97;;;18.10;47.66
17607;BME280;69222;52.242;20.980;2023-06-10T03:04:49;100358.75;;;18.12;47.64
17607;BME280;69222;52.242;20.980;2023-06-10T03:07:17;100364.03;;;18.10;47.46
17607;BME280;69222;52.242;20.980;2023-06-10T03:09:47;100366.81;;;18.06;47.73
17607;BME280;69222;52.242;20.980;2023-06-10T03:12:15;100362.50;;;18.05;48.01
17607;BME280;69222;52.242;20.980;2023-06-10T03:14:43;100367.63;;;18.08;47.93
17607;BME280;69222;52.242;20.980;2023-06-10T03:17:11;100358.75;;;18.12;47.98
17607;BME280;69222;52.242;20.980;2023-06-10T03:19:39;100364.75;;;18.14;47.85
17607;BME280;69222;52.242;20.980;2023-06-10T03:22:10;100366.59;;;18.12;48.11
17607;BME280;69222;52.242;20.980;2023-06-10T03:24:38;100365.78;;;18.10;48.16
17607;BME280;69222;52.242;20.980;2023-06-10T03:27:07;100364.09;;;18.09;48.54
17607;BME280;69222;52.242;20.980;2023-06-10T03:29:36;100363.16;;;18.10;48.60
17607;BME280;69222;52.242;20.980;2023-06-10T03:32:04;100378.78;;;18.12;48.55
17607;BME280;69222;52.242;20.980;2023-06-10T03:34:32;100374.34;;;18.14;48.32
17607;BME280;69222;52.242;20.980;2023-06-10T03:37:00;100372.66;;;18.13;48.62
17607;BME280;69222;52.242;20.980;2023-06-10T03:39:31;100372.66;;;18.13;48.26
17607;BME280;69222;52.242;20.980;2023-06-10T03:41:59;100381.31;;;18.13;48.69
17607;BME280;69222;52.242;20.980;2023-06-10T03:44:27;100372.47;;;18.17;48.55
17607;BME280;69222;52.242;20.980;2023-06-10T03:46:55;100381.97;;;18.18;48.75
17607;BME280;69222;52.242;20.980;2023-06-10T03:49:24;100379.25;;;18.21;48.76
17607;BME280;69222;52.242;20.980;2023-06-10T03:51:53;100391.38;;;18.22;48.74
17607;BME280;69222;52.242;20.980;2023-06-10T03:54:21;100383.56;;;18.22;48.50
17607;BME280;69222;52.242;20.980;2023-06-10T03:56:51;100384.44;;;18.23;48.78
17607;BME280;69222;52.242;20.980;2023-06-10T03:59:19;100390.50;;;18.23;48.83
17607;BME280;69222;52.242;20.980;2023-06-10T04:01:48;100393.97;;;18.24;48.90
17607;BME280;69222;52.242;20.980;2023-06-10T04:04:16;100392.19;;;18.24;48.78
17607;BME280;69222;52.242;20.980;2023-06-10T04:06:44;100396.50;;;18.25;48.90
17607;BME280;69222;52.242;20.980;2023-06-10T04:09:13;100389.22;;;18.33;48.88
17607;BME280;69222;52.242;20.980;2023-06-10T04:11:41;100390.69;;;18.41;48.72
17607;BME280;69222;52.242;20.980;2023-06-10T04:14:10;100394.00;;;18.46;48.80
17607;BME280;69222;52.242;20.980;2023-06-10T04:16:40;100392.03;;;18.51;48.18
17607;BME280;69222;52.242;20.980;2023-06-10T04:19:09;100385.78;;;18.55;48.40
17607;BME280;69222;52.242;20.980;2023-06-10T04:21:37;100387.03;;;18.68;48.31
17607;BME280;69222;52.242;20.980;2023-06-10T04:24:05;100383.84;;;18.83;47.91
17607;BME280;69222;52.242;20.980;2023-06-10T04:26:35;100389.53;;;18.93;47.42
17607;BME280;69222;52.242;20.980;2023-06-10T04:29:03;100393.53;;;19.02;47.34
17607;BME280;69222;52.242;20.980;2023-06-10T04:31:33;100386.22;;;19.10;47.32
17607;BME280;69222;52.242;20.980;2023-06-10T04:34:01;100384.00;;;19.21;46.96
17607;BME280;69222;52.242;20.980;2023-06-10T04:36:44;100386.66;;;19.42;46.56
17607;BME280;69222;52.242;20.980;2023-06-10T04:39:12;100395.00;;;19.50;46.40
17607;BME280;69222;52.242;20.980;2023-06-10T04:41:43;100390.28;;;19.58;46.06
17607;BME280;69222;52.242;20.980;2023-06-10T04:44:11;100387.44;;;19.64;46.00
17607;BME280;69222;52.242;20.980;2023-06-10T04:46:41;100391.63;;;19.68;45.87
17607;BME280;69222;52.242;20.980;2023-06-10T04:49:10;100391.88;;;19.83;45.71
17607;BME280;69222;52.242;20.980;2023-06-10T04:51:40;100400.72;;;19.99;45.46
17607;BME280;69222;52.242;20.980;2023-06-10T04:54:09;100395.44;;;20.19;45.21
17607;BME280;69222;52.242;20.980;2023-06-10T04:56:37;100403.22;;;20.40;44.89
17607;BME280;69222;52.242;20.980;2023-06-10T04:59:06;100405.94;;;20.57;44.67
17607;BME280;69222;52.242;20.980;2023-06-10T05:01:34;100403.28;;;20.76;44.01
17607;BME280;69222;52.242;20.980;2023-06-10T05:04:03;100406.03;;;20.92;43.68
17607;BME280;69222;52.242;20.980;2023-06-10T05:06:32;100404.50;;;21.05;43.64
17607;BME280;69222;52.242;20.980;2023-06-10T05:09:00;100409.66;;;21.07;43.07
17607;BME280;69222;52.242;20.980;2023-06-10T05:11:28;100399.56;;;21.16;42.93
17607;BME280;69222;52.242;20.980;2023-06-10T05:13:56;100399.41;;;21.19;43.05
17607;BME280;69222;52.242;20.980;2023-06-10T05:16:24;100402.50;;;21.28;42.79
17607;BME280;69222;52.242;20.980;2023-06-10T05:18:52;100400.97;;;21.23;42.79
17607;BME280;69222;52.242;20.980;2023-06-10T05:21:21;100411.16;;;21.30;42.84
17607;BME280;69222;52.242;20.980;2023-06-10T05:23:49;100406.13;;;21.25;42.98
17607;BME280;69222;52.242;20.980;2023-06-10T05:26:17;100402.59;;;21.26;42.77
17607;BME280;69222;52.242;20.980;2023-06-10T05:28:45;100403.13;;;21.15;42.85
17607;BME280;69222;52.242;20.980;2023-06-10T05:31:13;100402.97;;;21.18;42.86
17607;BME280;69222;52.242;20.980;2023-06-10T05:33:42;100406.91;;;21.27;43.00
17607;BME280;69222;52.242;20.980;2023-06-10T05:36:10;100401.75;;;21.26;43.11
17607;BME280;69222;52.242;20.980;2023-06-10T05:38:39;100408.53;;;21.30;43.30
17607;BME280;69222;52.242;20.980;2023-06-10T05:41:07;100410.69;;;21.39;43.21
17607;BME280;69222;52.242;20.980;2023-06-10T05:43:35;100401.28;;;21.52;42.83
17607;BME280;69222;52.242;20.980;2023-06-10T05:46:03;100401.28;;;21.69;42.60
17607;BME280;69222;52.242;20.980;2023-06-10T05:48:31;100398.78;;;21.84;41.95
17607;BME280;69222;52.242;20.980;2023-06-10T05:50:59;100401.97;;;22.06;41.29
17607;BME280;69222;52.242;20.980;2023-06-10T05:53:27;100410.50;;;22.43;41.01
17607;BME280;69222;52.242;20.980;2023-06-10T05:55:57;100412.03;;;22.95;40.10
17607;BME280;69222;52.242;20.980;2023-06-10T05:58:25;100409.22;;;23.28;39.18
17607;BME280;69222;52.242;20.980;2023-06-10T06:00:53;100417.75;;;23.61;38.58
17607;BME280;69222;52.242;20.980;2023-06-10T06:03:21;100418.72;;;24.03;37.79
17607;BME280;69222;52.242;20.980;2023-06-10T06:05:49;100418.28;;;24.67;36.81
17607;BME280;69222;52.242;20.980;2023-06-10T06:08:17;100414.53;;;25.50;34.62
17607;BME280;69222;52.242;20.980;2023-06-10T06:10:45;100409.16;;;26.89;33.12
17607;BME280;69222;52.242;20.980;2023-06-10T06:13:15;100406.78;;;28.47;29.49
17607;BME280;69222;52.242;20.980;2023-06-10T06:15:44;100396.47;;;30.01;28.10
17607;BME280;69222;52.242;20.980;2023-06-10T06:18:12;100397.63;;;31.46;25.62
17607;BME280;69222;52.242;20.980;2023-06-10T06:20:40;100397.84;;;32.55;23.75
17607;BME280;69222;52.242;20.980;2023-06-10T06:23:08;100400.63;;;33.42;22.67
17607;BME280;69222;52.242;20.980;2023-06-10T06:25:37;100392.91;;;34.18;21.66
17607;BME280;69222;52.242;20.980;2023-06-10T06:28:06;100393.84;;;34.67;20.98
17607;BME280;69222;52.242;20.980;2023-06-10T06:30:35;100395.38;;;34.78;20.75
17607;BME280;69222;52.242;20.980;2023-06-10T06:33:03;100396.06;;;35.21;19.93
17607;BME280;69222;52.242;20.980;2023-06-10T06:35:32;100394.00;;;35.72;20.03
17607;BME280;69222;52.242;20.980;2023-06-10T06:38:00;100395.69;;;36.12;19.83
17607;BME280;69222;52.242;20.980;2023-06-10T06:40:30;100395.97;;;37.03;18.33
17607;BME280;69222;52.242;20.980;2023-06-10T06:42:58;100393.22;;;37.78;17.57
17607;BME280;69222;52.242;20.980;2023-06-10T06:45:26;100401.16;;;38.16;17.22
17607;BME280;69222;52.242;20.980;2023-06-10T06:47:57;100402.19;;;38.73;16.74
17607;BME280;69222;52.242;20.980;2023-06-10T06:50:25;100401.75;;;39.12;15.80
17607;BME280;69222;52.242;20.980;2023-06-10T06:52:53;100401.44;;;39.91;16.04
17607;BME280;69222;52.242;20.980;2023-06-10T06:55:23;100399.66;;;40.73;14.81
17607;BME280;69222;52.242;20.980;2023-06-10T06:57:51;100396.78;;;41.14;14.26
17607;BME280;69222;52.242;20.980;2023-06-10T07:00:19;100405.91;;;41.40;14.19
17607;BME280;69222;52.242;20.980;2023-06-10T07:02:48;100404.81;;;41.61;14.21
17607;BME280;69222;52.242;20.980;2023-06-10T07:05:17;100408.16;;;42.28;13.92
17607;BME280;69222;52.242;20.980;2023-06-10T07:07:45;100412.81;;;42.84;13.27
17607;BME280;69222;52.242;20.980;2023-06-10T07:10:13;100410.03;;;43.15;12.81
17607;BME280;69222;52.242;20.980;2023-06-10T07:12:42;100407.69;;;43.44;12.18
17607;BME280;69222;52.242;20.980;2023-06-10T07:15:10;100411.81;;;43.53;12.97
17607;BME280;69222;52.242;20.980;2023-06-10T07:17:38;100407.97;;;43.36;12.72
17607;BME280;69222;52.242;20.980;2023-06-10T07:20:07;100411.69;;;42.21;13.01
17607;BME280;69222;52.242;20.980;2023-06-10T07:22:37;100409.84;;;41.24;14.03
17607;BME280;69222;52.242;20.980;2023-06-10T07:25:07;100415.91;;;41.39;14.23
17607;BME280;69222;52.242;20.980;2023-06-10T07:27:35;100417.34;;;41.28;14.07
17607;BME280;69222;52.242;20.980;2023-06-10T07:30:06;100411.69;;;41.63;14.17
17607;BME280;69222;52.242;20.980;2023-06-10T07:32:35;100421.69;;;41.56;13.97
17607;BME280;69222;52.242;20.980;2023-06-10T07:35:03;100414.22;;;41.45;14.06
17607;BME280;69222;52.242;20.980;2023-06-10T07:37:31;100417.84;;;40.38;14.51
17607;BME280;69222;52.242;20.980;2023-06-10T07:40:01;100422.09;;;39.14;16.12
17607;BME280;69222;52.242;20.980;2023-06-10T07:42:29;100430.00;;;38.22;16.73
17607;BME280;69222;52.242;20.980;2023-06-10T07:44:57;100428.47;;;36.62;18.24
17607;BME280;69222;52.242;20.980;2023-06-10T07:47:25;100439.03;;;34.86;19.96
17607;BME280;69222;52.242;20.980;2023-06-10T07:49:53;100436.81;;;33.11;21.45
17607;BME280;69222;52.242;20.980;2023-06-10T07:52:21;100437.44;;;30.99;24.27
17607;BME280;69222;52.242;20.980;2023-06-10T07:54:49;100445.69;;;29.54;26.59
17607;BME280;69222;52.242;20.980;2023-06-10T07:57:19;100443.28;;;28.54;28.15
17607;BME280;69222;52.242;20.980;2023-06-10T07:59:47;100439.53;;;27.89;29.38
17607;BME280;69222;52.242;20.980;2023-06-10T08:02:16;100450.81;;;27.69;30.43
17607;BME280;69222;52.242;20.980;2023-06-10T08:04:44;100451.97;;;27.65;30.46
17607;BME280;69222;52.242;20.980;2023-06-10T08:07:12;100453.38;;;27.82;30.28
17607;BME280;69222;52.242;20.980;2023-06-10T08:09:40;100453.03;;;27.98;29.88
17607;BME280;69222;52.242;20.980;2023-06-10T08:12:10;100442.44;;;28.09;30.23
17607;BME280;69222;52.242;20.980;2023-06-10T08:14:39;100442.69;;;28.06;30.21
17607;BME280;69222;52.242;20.980;2023-06-10T08:17:08;100456.16;;;27.80;30.19
17607;BME280;69222;52.242;20.980;2023-06-10T08:19:36;100448.56;;;27.40;30.60
17607;BME280;69222;52.242;20.980;2023-06-10T08:22:04;100450.19;;;27.19;31.18
17607;BME280;69222;52.242;20.980;2023-06-10T08:24:32;100455.28;;;27.09;30.71
17607;BME280;69222;52.242;20.980;2023-06-10T08:27:00;100449.00;;;26.99;30.64
17607;BME280;69222;52.242;20.980;2023-06-10T08:29:30;100450.56;;;27.02;31.26
17607;BME280;69222;52.242;20.980;2023-06-10T08:32:06;100444.53;;;27.00;31.71
17607;BME280;69222;52.242;20.980;2023-06-10T08:34:34;100452.97;;;27.05;31.33
17607;BME280;69222;52.242;20.980;2023-06-10T08:37:04;100446.94;;;27.03;31.22
17607;BME280;69222;52.242;20.980;2023-06-10T08:39:32;100454.09;;;26.89;31.00
17607;BME280;69222;52.242;20.980;2023-06-10T08:42:07;100464.34;;;26.70;31.33
17607;BME280;69222;52.242;20.980;2023-06-10T08:44:37;100457.19;;;26.46;31.28
17607;BME280;69222;52.242;20.980;2023-06-10T08:47:12;100456.78;;;26.27;31.31
17607;BME280;69222;52.242;20.980;2023-06-10T08:49:44;100456.69;;;26.16;32.08
17607;BME280;69222;52.242;20.980;2023-06-10T08:52:15;100458.38;;;26.17;32.42
17607;BME280;69222;52.242;20.980;2023-06-10T08:54:48;100462.38;;;26.35;32.13
17607;BME280;69222;52.242;20.980;2023-06-10T08:57:17;100453.81;;;26.44;32.51
17607;BME280;69222;52.242;20.980;2023-06-10T08:59:47;100460.78;;;26.45;33.23
17607;BME280;69222;52.242;20.980;2023-06-10T09:02:18;100462.69;;;26.56;32.92
17607;BME280;69222;52.242;20.980;2023-06-10T09:04:47;100467.28;;;26.78;32.92
17607;BME280;69222;52.242;20.980;2023-06-10T09:07:17;100463.44;;;26.82;32.74
17607;BME280;69222;52.242;20.980;2023-06-10T09:09:45;100465.28;;;26.69;32.51
17607;BME280;69222;52.242;20.980;2023-06-10T09:12:14;100463.94;;;26.63;32.46
17607;BME280;69222;52.242;20.980;2023-06-10T09:14:42;100468.75;;;26.69;32.47
17607;BME280;69222;52.242;20.980;2023-06-10T09:17:10;100472.56;;;26.78;32.82
17607;BME280;69222;52.242;20.980;2023-06-10T09:19:41;100468.09;;;26.79;32.57
17607;BME280;69222;52.242;20.980;2023-06-10T09:22:10;100469.16;;;26.76;32.07
17607;BME280;69222;52.242;20.980;2023-06-10T09:24:39;100472.56;;;26.78;31.93
17607;BME280;69222;52.242;20.980;2023-06-10T09:27:08;100467.97;;;26.56;32.04
17607;BME280;69222;52.242;20.980;2023-06-10T09:29:47;100479.38;;;26.44;31.53
17607;BME280;69222;52.242;20.980;2023-06-10T09:32:17;100475.28;;;26.27;32.28
17607;BME280;69222;52.242;20.980;2023-06-10T09:34:47;100478.88;;;26.26;32.12
17607;BME280;69222;52.242;20.980;2023-06-10T09:37:20;100479.06;;;26.36;32.34
17607;BME280;69222;52.242;20.980;2023-06-10T09:40:05;100477.50;;;26.33;30.57
17607;BME280;69222;52.242;20.980;2023-06-10T09:42:34;100472.59;;;26.40;30.65
17607;BME280;69222;52.242;20.980;2023-06-10T09:45:03;100475.38;;;26.51;30.33
17607;BME280;69222;52.242;20.980;2023-06-10T09:47:31;100477.28;;;26.49;30.41
17607;BME280;69222;52.242;20.980;2023-06-10T09:50:01;100475.47;;;26.49;29.76
17607;BME280;69222;52.242;20.980;2023-06-10T09:52:30;100479.59;;;26.54;29.00
17607;BME280;69222;52.242;20.980;2023-06-10T09:55:00;100475.16;;;26.54;27.77
17607;BME280;69222;52.242;20.980;2023-06-10T09:57:31;100481.81;;;26.60;27.65
17607;BME280;69222;52.242;20.980;2023-06-10T10:00:04;100484.75;;;26.68;27.19
17607;BME280;69222;52.242;20.980;2023-06-10T10:02:32;100477.22;;;26.74;26.27
17607;BME280;69222;52.242;20.980;2023-06-10T10:05:04;100472.44;;;26.80;26.13
17607;BME280;69222;52.242;20.980;2023-06-10T10:07:34;100467.59;;;27.45;25.26
17607;BME280;69222;52.242;20.980;2023-06-10T10:10:02;100468.94;;;28.65;24.12
17607;BME280;69222;52.242;20.980;2023-06-10T10:12:31;100457.13;;;29.96;22.54
17607;BME280;69222;52.242;20.980;2023-06-10T10:14:59;100454.94;;;30.92;20.33
17607;BME280;69222;52.242;20.980;2023-06-10T10:17:29;100454.72;;;31.34;17.92
17607;BME280;69222;52.242;20.980;2023-06-10T10:20:03;100455.72;;;31.70;17.36
17607;BME280;69222;52.242;20.980;2023-06-10T10:22:37;100454.13;;;32.34;16.53
17607;BME280;69222;52.242;20.980;2023-06-10T10:25:10;100452.47;;;32.60;15.39
17607;BME280;69222;52.242;20.980;2023-06-10T10:27:43;100457.41;;;32.73;15.95
17607;BME280;69222;52.242;20.980;2023-06-10T10:30:14;100449.06;;;32.86;15.99
17607;BME280;69222;52.242;20.980;2023-06-10T10:32:50;100439.91;;;32.88;15.46
17607;BME280;69222;52.242;20.980;2023-06-10T10:35:22;100450.28;;;33.71;15.48
17607;BME280;69222;52.242;20.980;2023-06-10T10:37:52;100449.94;;;34.93;14.27
17607;BME280;69222;52.242;20.980;2023-06-10T10:40:22;100443.47;;;36.09;13.49
17607;BME280;69222;52.242;20.980;2023-06-10T10:42:52;100437.09;;;37.03;13.02
17607;BME280;69222;52.242;20.980;2023-06-10T10:45:21;100443.84;;;37.75;12.60
17607;BME280;69222;52.242;20.980;2023-06-10T10:47:52;100448.47;;;38.40;12.39
17607;BME280;69222;52.242;20.980;2023-06-10T10:50:23;100437.66;;;38.55;12.19
17607;BME280;69222;52.242;20.980;2023-06-10T10:52:54;100433.38;;;39.25;12.19
17607;BME280;69222;52.242;20.980;2023-06-10T10:55:23;100436.88;;;40.16;11.96
17607;BME280;69222;52.242;20.980;2023-06-10T10:57:56;100426.44;;;40.61;11.18
17607;BME280;69222;52.242;20.980;2023-06-10T11:00:31;100430.88;;;41.09;11.01
17607;BME280;69222;52.242;20.980;2023-06-10T11:03:04;100434.22;;;41.04;10.95
17607;BME280;69222;52.242;20.980;2023-06-10T11:05:39;100422.47;;;40.57;11.50
17607;BME280;69222;52.242;20.980;2023-06-10T11:08:08;100425.91;;;39.48;12.03
17607;BME280;69222;52.242;20.980;2023-06-10T11:10:38;100425.38;;;38.88;12.33
17607;BME280;69222;52.242;20.980;2023-06-10T11:13:09;100421.47;;;38.18;12.89
17607;BME280;69222;52.242;20.980;2023-06-10T11:15:43;100427.25;;;37.56;13.44
17607;BME280;69222;52.242;20.980;2023-06-10T11:18:19;100421.28;;;37.46;13.68
17607;BME280;69222;52.242;20.980;2023-06-10T11:20:53;100424.63;;;37.48;13.67
17607;BME280;69222;52.242;20.980;2023-06-10T11:23:39;100417.84;;;36.91;14.24
17607;BME280;69222;52.242;20.980;2023-06-10T11:26:12;100420.34;;;36.08;15.33
17607;BME280;69222;52.242;20.980;2023-06-10T11:28:42;100416.97;;;35.58;15.86
17607;BME280;69222;52.242;20.980;2023-06-10T11:31:30;100417.34;;;35.14;15.99
17607;BME280;69222;52.242;20.980;2023-06-10T11:34:00;100415.59;;;34.64;15.26
17607;BME280;69222;52.242;20.980;2023-06-10T11:36:29;100410.28;;;34.13;14.60
17607;BME280;69222;52.242;20.980;2023-06-10T11:38:59;100423.72;;;33.70;15.34
17607;BME280;69222;52.242;20.980;2023-06-10T11:41:28;100416.53;;;33.44;16.30
17607;BME280;69222;52.242;20.980;2023-06-10T11:44:02;100418.34;;;33.00;16.39
17607;BME280;69222;52.242;20.980;2023-06-10T11:46:30;100425.19;;;32.66;16.73
17607;BME280;69222;52.242;20.980;2023-06-10T11:48:59;100406.41;;;32.76;17.03
17607;BME280;69222;52.242;20.980;2023-06-10T11:51:32;100410.25;;;32.74;17.09
17607;BME280;69222;52.242;20.980;2023-06-10T11:54:01;100405.13;;;32.07;17.51
17607;BME280;69222;52.242;20.980;2023-06-10T11:56:31;100415.88;;;31.02;19.05
17607;BME280;69222;52.242;20.980;2023-06-10T11:59:00;100406.78;;;30.25;19.61
17607;BME280;69222;52.242;20.980;2023-06-10T12:01:32;100405.09;;;29.63;20.46
17607;BME280;69222;52.242;20.980;2023-06-10T12:04:02;100410.25;;;29.23;21.19
17607;BME280;69222;52.242;20.980;2023-06-10T12:06:42;100405.88;;;28.69;21.99
17607;BME280;69222;52.242;20.980;2023-06-10T12:09:14;100413.41;;;28.41;22.74
17607;BME280;69222;52.242;20.980;2023-06-10T12:11:52;100406.75;;;28.24;22.77
17607;BME280;69222;52.242;20.980;2023-06-10T12:14:51;100405.84;;;28.03;22.87
17607;BME280;69222;52.242;20.980;2023-06-10T12:17:23;100401.03;;;27.85;23.46
17607;BME280;69222;52.242;20.980;2023-06-10T12:19:51;100398.78;;;27.45;25.13
17607;BME280;69222;52.242;20.980;2023-06-10T12:22:20;100407.91;;;27.41;25.81
17607;BME280;69222;52.242;20.980;2023-06-10T12:24:59;100400.59;;;27.56;26.45
17607;BME280;69222;52.242;20.980;2023-06-10T12:27:28;100391.63;;;27.81;26.46
17607;BME280;69222;52.242;20.980;2023-06-10T12:29:57;100391.63;;;28.15;26.25
17607;BME280;69222;52.242;20.980;2023-06-10T12:32:38;100402.34;;;28.02;26.61
17607;BME280;69222;52.242;20.980;2023-06-10T12:35:07;100407.25;;;27.62;27.30
17607;BME280;69222;52.242;20.980;2023-06-10T12:37:38;100401.13;;;27.26;27.06
17607;BME280;69222;52.242;20.980;2023-06-10T12:40:10;100399.44;;;27.14;27.44
17607;BME280;69222;52.242;20.980;2023-06-10T12:42:38;100394.41;;;27.22;27.60
17607;BME280;69222;52.242;20.980;2023-06-10T12:45:07;100389.97;;;27.34;28.04
17607;BME280;69222;52.242;20.980;2023-06-10T12:47:37;100388.41;;;27.42;28.75
17607;BME280;69222;52.242;20.980;2023-06-10T12:50:07;100389.25;;;27.43;28.89
17607;BME280;69222;52.242;20.980;2023-06-10T12:52:35;100392.50;;;27.35;28.35